Time;durP1;ratioP1;P1;durP2;ratioP2;P2;SDS_P1;SDS_P2;PMS_P1;PMS_P2;Temp;Humidity;BMP_temperature;BMP_pressure;BME280_temperature;BME280_humidity;BME280_pressure;Samples;Min_cycle;Max_cycle;Signal;HPM_P1;HPM_P2
2022/08/02 00:00:14;;;;;;;1.05;0.32;;;16.30;48.40;;;;;;5072766;28;20658;-39
2022/08/02 00:02:45;;;;;;;0.90;0.40;;;16.30;48.40;;;;;;5073151;28;20194;-39
2022/08/02 00:05:17;;;;;;;0.52;0.30;;;16.30;48.30;;;;;;5073489;28;20218;-38
2022/08/02 00:07:48;;;;;;;0.68;0.30;;;16.30;48.30;;;;;;5072249;28;20206;-38
2022/08/02 00:10:20;;;;;;;0.30;0.30;;;16.40;48.30;;;;;;5073019;28;20701;-42
2022/08/02 00:12:51;;;;;;;0.93;0.63;;;16.40;48.20;;;;;;5072549;28;20197;-45
2022/08/02 00:15:21;;;;;;;2.53;0.30;;;16.40;48.20;;;;;;5072886;28;20202;-40
2022/08/02 00:17:52;;;;;;;0.20;0.20;;;16.50;48.10;;;;;;5072260;28;20226;-38
2022/08/02 00:20:23;;;;;;;0.45;0.20;;;16.50;48.20;;;;;;5079706;28;20190;-39
2022/08/02 00:22:54;;;;;;;0.35;0.20;;;16.50;48.40;;;;;;5072100;28;20662;-37
2022/08/02 00:25:26;;;;;;;0.77;0.30;;;16.50;48.30;;;;;;5071773;28;20218;-42
2022/08/02 00:27:57;;;;;;;0.28;0.20;;;16.60;48.20;;;;;;5071560;28;20199;-39
2022/08/02 00:30:28;;;;;;;1.88;0.35;;;16.60;48.20;;;;;;5071964;28;20187;-43
2022/08/02 00:32:58;;;;;;;0.30;0.15;;;16.60;48.40;;;;;;5071976;28;20191;-38
2022/08/02 00:35:29;;;;;;;0.20;0.20;;;16.60;48.30;;;;;;5071875;28;20693;-42
2022/08/02 00:38:00;;;;;;;0.73;0.20;;;16.70;48.30;;;;;;5071017;28;20218;-38
2022/08/02 00:40:32;;;;;;;0.45;0.20;;;16.70;48.20;;;;;;5065254;28;20197;-39
2022/08/02 00:43:08;;;;;;;0.22;0.20;;;16.70;48.20;;;;;;5052059;28;20207;-38
2022/08/02 00:45:40;;;;;;;0.73;0.22;;;16.70;48.10;;;;;;5069128;28;20255;-43
2022/08/02 00:48:12;;;;;;;0.10;0.10;;;16.70;48.00;;;;;;5092247;28;20646;-37
2022/08/02 00:50:43;;;;;;;0.10;0.10;;;16.80;48.00;;;;;;5084537;28;20763;-43
2022/08/02 00:53:14;;;;;;;0.20;0.20;;;16.80;48.00;;;;;;5071600;28;20190;-38
2022/08/02 00:55:47;;;;;;;0.30;0.20;;;16.80;48.00;;;;;;5072179;28;20195;-40
2022/08/02 00:58:18;;;;;;;2.17;0.30;;;16.80;47.90;;;;;;5071298;28;20218;-38
2022/08/02 01:00:48;;;;;;;0.90;0.20;;;16.90;47.90;;;;;;5072378;28;20574;-38
2022/08/02 01:03:19;;;;;;;0.30;0.20;;;16.90;47.90;;;;;;5071063;28;20213;-37
2022/08/02 01:05:50;;;;;;;0.30;0.20;;;16.90;47.90;;;;;;5069673;28;20195;-38
2022/08/02 01:08:21;;;;;;;0.28;0.20;;;16.90;47.80;;;;;;5070586;28;20199;-38
2022/08/02 01:10:53;;;;;;;0.30;0.30;;;16.90;47.80;;;;;;5070557;28;20789;-37
2022/08/02 01:13:24;;;;;;;0.40;0.30;;;17.00;48.40;;;;;;5071401;28;20194;-39
2022/08/02 01:16:02;;;;;;;0.30;0.20;;;17.00;47.80;;;;;;5071119;28;20525;-47
2022/08/02 01:18:37;;;;;;;0.20;0.20;;;17.00;47.90;;;;;;5071365;28;20194;-40
2022/08/02 01:21:31;;;;;;;0.40;0.28;;;17.10;47.90;;;;;;5070837;28;20198;-47
2022/08/02 01:24:15;;;;;;;0.75;0.30;;;17.10;47.80;;;;;;5071199;28;20583;-40
2022/08/02 01:26:52;;;;;;;1.15;0.35;;;17.10;47.80;;;;;;5071373;28;20198;-38
2022/08/02 01:29:28;;;;;;;0.35;0.20;;;17.20;47.90;;;;;;5071568;28;20205;-42
2022/08/02 01:32:05;;;;;;;0.70;0.30;;;17.20;47.80;;;;;;5071234;28;20198;-38
2022/08/02 01:34:41;;;;;;;0.40;0.30;;;17.20;47.70;;;;;;5070898;28;20218;-40
2022/08/02 01:37:17;;;;;;;0.28;0.17;;;17.20;47.70;;;;;;5070901;28;20245;-38
2022/08/02 01:39:50;;;;;;;0.17;0.17;;;17.30;47.60;;;;;;5070745;28;20610;-38
2022/08/02 01:42:22;;;;;;;0.85;0.32;;;17.30;47.50;;;;;;5070122;28;20190;-38
2022/08/02 01:44:57;;;;;;;0.30;0.15;;;17.30;47.40;;;;;;5070866;28;20222;-38
2022/08/02 01:47:32;;;;;;;0.20;0.20;;;17.40;47.30;;;;;;5070261;28;20194;-38
2022/08/02 01:50:03;;;;;;;0.57;0.20;;;17.40;47.30;;;;;;5069172;28;20205;-38
2022/08/02 01:52:39;;;;;;;0.25;0.22;;;17.40;47.10;;;;;;5070182;28;20195;-41
2022/08/02 01:55:12;;;;;;;0.30;0.20;;;17.40;47.00;;;;;;5071078;28;20222;-38
2022/08/02 01:57:47;;;;;;;0.47;0.30;;;17.50;46.90;;;;;;5070179;28;20221;-38
2022/08/02 02:00:22;;;;;;;0.38;0.10;;;17.50;46.80;;;;;;5070242;28;20193;-42
2022/08/02 02:02:54;;;;;;;0.65;0.20;;;17.60;46.60;;;;;;5069419;28;20198;-38
2022/08/02 02:05:27;;;;;;;1.27;0.50;;;17.60;46.50;;;;;;5069308;28;20214;-38
2022/08/02 02:07:59;;;;;;;0.65;0.20;;;17.60;46.50;;;;;;5062030;28;20223;-38
2022/08/02 02:10:32;;;;;;;1.35;0.20;;;17.70;46.30;;;;;;5066599;28;20202;-42
2022/08/02 02:13:07;;;;;;;0.17;0.10;;;17.70;46.10;;;;;;5069918;28;20225;-38
2022/08/02 02:15:43;;;;;;;0.20;0.20;;;17.70;46.00;;;;;;5070064;28;20214;-38
2022/08/02 02:18:18;;;;;;;0.40;0.20;;;17.80;45.90;;;;;;5070140;28;20815;-37
2022/08/02 02:20:49;;;;;;;1.10;0.30;;;17.80;45.90;;;;;;5070223;28;20209;-40
2022/08/02 02:23:21;;;;;;;0.47;0.20;;;17.80;45.80;;;;;;5070911;28;20199;-38
2022/08/02 02:25:53;;;;;;;0.10;0.10;;;17.90;45.90;;;;;;5070055;28;20217;-43
2022/08/02 02:28:28;;;;;;;0.20;0.10;;;17.90;45.80;;;;;;5070179;28;20236;-38
2022/08/02 02:31:04;;;;;;;1.50;0.28;;;17.90;45.70;;;;;;5071267;28;20544;-37
2022/08/02 02:33:39;;;;;;;0.47;0.20;;;17.90;45.80;;;;;;5069736;28;20187;-38
2022/08/02 02:36:12;;;;;;;0.20;0.20;;;18.00;45.80;;;;;;5067834;28;20194;-41
2022/08/02 02:38:44;;;;;;;0.10;0.10;;;18.00;45.80;;;;;;5053158;28;20823;-39
2022/08/02 02:41:16;;;;;;;0.25;0.25;;;18.00;45.80;;;;;;5070861;28;20662;-37
2022/08/02 02:43:47;;;;;;;0.10;0.10;;;18.10;45.90;;;;;;5070375;28;20218;-38
2022/08/02 02:46:21;;;;;;;0.43;0.20;;;18.10;46.00;;;;;;5070373;28;20194;-38
2022/08/02 02:48:53;;;;;;;0.40;0.30;;;18.10;45.90;;;;;;5070574;28;20650;-38
2022/08/02 02:51:25;;;;;;;0.57;0.20;;;18.20;46.00;;;;;;5065844;28;20278;-39
2022/08/02 02:53:58;;;;;;;0.10;0.10;;;18.20;46.10;;;;;;5069734;28;20230;-42
2022/08/02 02:56:29;;;;;;;1.35;0.30;;;18.20;46.10;;;;;;5069626;28;20403;-38
2022/08/02 02:59:00;;;;;;;0.20;0.20;;;18.20;46.10;;;;;;5070315;28;20646;-38
2022/08/02 03:01:33;;;;;;;1.35;0.20;;;18.30;46.10;;;;;;5069769;28;20194;-41
2022/08/02 03:04:05;;;;;;;0.47;0.10;;;18.30;46.10;;;;;;5069901;28;20685;-38
2022/08/02 03:06:37;;;;;;;0.10;0.10;;;18.30;46.10;;;;;;5069729;28;20838;-38
2022/08/02 03:09:08;;;;;;;0.20;0.20;;;18.40;46.10;;;;;;5050710;28;20202;-37
2022/08/02 03:11:40;;;;;;;0.20;0.20;;;18.40;46.10;;;;;;5058657;28;20195;-39
2022/08/02 03:14:13;;;;;;;1.08;0.10;;;18.40;46.10;;;;;;5069963;28;20221;-38
2022/08/02 03:16:50;;;;;;;0.03;0.03;;;18.40;46.00;;;;;;5071515;28;20195;-38
2022/08/02 03:19:22;;;;;;;0.57;0.30;;;18.40;46.00;;;;;;5073558;28;20209;-43
2022/08/02 03:21:53;;;;;;;0.10;0.10;;;18.50;46.10;;;;;;5074196;28;20199;-39
2022/08/02 03:24:23;;;;;;;0.32;0.17;;;18.50;46.00;;;;;;5074245;28;20219;-38
2022/08/02 03:26:54;;;;;;;0.10;0.10;;;18.50;46.10;;;;;;5073917;28;20206;-38
2022/08/02 03:29:25;;;;;;;0.32;0.25;;;18.50;46.20;;;;;;5074073;28;20198;-48
2022/08/02 03:31:59;;;;;;;0.17;0.17;;;18.50;46.10;;;;;;5074301;28;20195;-47
2022/08/02 03:34:30;;;;;;;0.00;0.00;;;18.60;46.80;;;;;;5074001;28;20304;-39
2022/08/02 03:37:01;;;;;;;1.63;0.47;;;18.60;46.30;;;;;;5073824;28;20214;-38
2022/08/02 03:39:33;;;;;;;0.40;0.10;;;18.60;46.30;;;;;;5074067;28;20560;-39
2022/08/02 03:42:04;;;;;;;0.77;0.10;;;18.60;46.40;;;;;;5073763;28;20561;-41
2022/08/02 03:44:38;;;;;;;0.30;0.20;;;18.70;46.60;;;;;;5073633;28;20215;-45
2022/08/02 03:47:11;;;;;;;1.58;0.30;;;18.70;46.60;;;;;;5073721;28;20561;-39
2022/08/02 03:49:42;;;;;;;0.20;0.20;;;18.70;46.60;;;;;;5073318;28;20194;-38
2022/08/02 03:52:14;;;;;;;0.30;0.20;;;18.70;46.60;;;;;;5073632;28;20277;-43
2022/08/02 03:54:45;;;;;;;0.73;0.32;;;18.70;46.60;;;;;;5073789;28;20719;-38
2022/08/02 03:57:16;;;;;;;0.60;0.20;;;18.80;46.70;;;;;;5072939;28;20225;-38
2022/08/02 03:59:48;;;;;;;1.45;0.20;;;18.80;46.80;;;;;;5067531;28;20195;-38
2022/08/02 04:02:20;;;;;;;0.45;0.30;;;18.80;46.80;;;;;;5071789;28;20191;-38
2022/08/02 04:04:51;;;;;;;0.47;0.20;;;18.80;46.90;;;;;;5059345;28;20804;-44
2022/08/02 04:07:22;;;;;;;0.47;0.20;;;18.80;46.90;;;;;;5056340;28;20192;-43
2022/08/02 04:09:52;;;;;;;0.20;0.20;;;18.90;47.00;;;;;;5065161;28;20201;-38
2022/08/02 04:12:23;;;;;;;0.30;0.30;;;18.90;47.00;;;;;;5088860;28;20846;-37
2022/08/02 04:14:54;;;;;;;0.13;0.13;;;18.90;47.00;;;;;;5078838;28;20221;-38
2022/08/02 04:17:29;;;;;;;1.23;0.50;;;18.90;47.00;;;;;;5092662;28;20214;-38
2022/08/02 04:20:06;;;;;;;0.98;0.20;;;19.00;47.10;;;;;;5059731;28;20198;-42
2022/08/02 04:22:41;;;;;;;0.75;0.30;;;19.00;47.00;;;;;;5071853;28;20198;-38
2022/08/02 04:25:14;;;;;;;0.20;0.20;;;19.00;47.00;;;;;;5072438;28;20214;-38
2022/08/02 04:27:46;;;;;;;0.20;0.20;;;19.00;47.10;;;;;;5069488;28;20643;-38
2022/08/02 04:30:19;;;;;;;0.57;0.20;;;19.00;47.20;;;;;;5072188;28;20235;-38
2022/08/02 04:32:52;;;;;;;0.20;0.20;;;19.10;47.20;;;;;;5072670;28;20190;-41
2022/08/02 04:35:23;;;;;;;0.73;0.30;;;19.10;47.30;;;;;;5072682;28;20211;-38
2022/08/02 04:37:54;;;;;;;0.22;0.22;;;19.10;47.30;;;;;;5071841;28;20222;-38
2022/08/02 04:40:25;;;;;;;0.80;0.40;;;19.10;47.40;;;;;;5071481;28;20216;-37
2022/08/02 04:42:56;;;;;;;0.63;0.30;;;19.10;47.60;;;;;;5071920;28;20207;-38
2022/08/02 04:45:28;;;;;;;0.30;0.30;;;19.10;47.60;;;;;;5071593;28;20207;-38
2022/08/02 04:48:01;;;;;;;0.25;0.20;;;19.10;47.70;;;;;;5071412;28;20187;-38
2022/08/02 04:50:31;;;;;;;0.43;0.30;;;19.10;47.80;;;;;;5071467;28;20669;-38
2022/08/02 04:53:02;;;;;;;0.17;0.17;;;19.10;47.90;;;;;;5072126;28;20194;-38
2022/08/02 04:55:33;;;;;;;0.70;0.30;;;19.10;47.90;;;;;;5069902;28;20217;-41
2022/08/02 04:58:03;;;;;;;0.30;0.30;;;19.10;47.90;;;;;;5071652;28;20593;-40
2022/08/02 05:00:34;;;;;;;0.30;0.30;;;19.10;48.00;;;;;;5070915;28;20191;-41
2022/08/02 05:03:07;;;;;;;0.40;0.30;;;19.10;48.10;;;;;;5071705;28;20187;-44
2022/08/02 05:05:38;;;;;;;0.30;0.20;;;19.10;48.20;;;;;;5080638;28;20222;-38
2022/08/02 05:08:09;;;;;;;0.20;0.20;;;19.00;48.20;;;;;;5092397;28;20584;-44
2022/08/02 05:10:39;;;;;;;1.17;0.40;;;19.00;48.20;;;;;;5091349;28;20482;-48
2022/08/02 05:13:10;;;;;;;0.30;0.30;;;19.00;48.20;;;;;;5091235;28;20204;-38
2022/08/02 05:15:41;;;;;;;0.90;0.30;;;19.00;48.20;;;;;;5091808;28;20210;-38
2022/08/02 05:18:13;;;;;;;0.40;0.20;;;19.00;48.20;;;;;;5091477;28;20626;-38
2022/08/02 05:20:44;;;;;;;2.53;0.52;;;19.00;48.30;;;;;;5088774;28;20676;-38
2022/08/02 05:23:15;;;;;;;0.40;0.40;;;19.00;48.50;;;;;;5071606;28;20209;-38
2022/08/02 05:25:45;;;;;;;0.40;0.40;;;19.00;48.50;;;;;;5071920;28;20203;-43
2022/08/02 05:28:16;;;;;;;1.35;0.32;;;18.90;48.50;;;;;;5070540;28;20201;-57
2022/08/02 05:30:47;;;;;;;0.45;0.43;;;18.90;48.60;;;;;;5070533;28;20195;-52
2022/08/02 05:33:20;;;;;;;0.73;0.40;;;18.90;48.70;;;;;;5069963;28;20205;-38
2022/08/02 05:35:50;;;;;;;0.40;0.30;;;18.90;48.70;;;;;;5070950;28;20191;-38
2022/08/02 05:38:21;;;;;;;1.33;0.50;;;18.90;48.70;;;;;;5070585;28;20234;-40
2022/08/02 05:40:52;;;;;;;0.82;0.68;;;18.90;48.70;;;;;;5080899;28;20705;-41
2022/08/02 05:43:22;;;;;;;0.82;0.50;;;18.90;48.70;;;;;;5091747;28;20197;-44
2022/08/02 05:45:54;;;;;;;0.73;0.43;;;18.90;48.70;;;;;;5090906;28;20186;-40
2022/08/02 05:48:27;;;;;;;0.52;0.40;;;18.90;48.80;;;;;;5085963;28;20599;-38
2022/08/02 05:51:03;;;;;;;1.20;0.57;;;18.80;48.80;;;;;;5070804;28;20797;-37
2022/08/02 05:53:39;;;;;;;1.05;0.50;;;18.90;48.90;;;;;;5070546;28;20810;-40
2022/08/02 05:56:18;;;;;;;1.33;0.50;;;18.80;49.50;;;;;;5065407;28;20244;-39
2022/08/02 05:58:55;;;;;;;0.73;0.30;;;18.80;48.90;;;;;;5071047;28;20218;-41
2022/08/02 06:01:33;;;;;;;1.20;0.40;;;18.80;49.00;;;;;;5070480;28;20205;-37
2022/08/02 06:04:09;;;;;;;0.68;0.40;;;18.80;49.00;;;;;;5071235;28;20214;-43
2022/08/02 06:06:44;;;;;;;0.68;0.30;;;18.80;49.10;;;;;;5070246;28;20206;-45
2022/08/02 06:09:18;;;;;;;0.57;0.43;;;18.80;49.20;;;;;;5070474;28;20198;-38
2022/08/02 06:11:53;;;;;;;0.30;0.30;;;18.80;49.10;;;;;;5070766;28;20194;-38
2022/08/02 06:14:23;;;;;;;0.90;0.47;;;18.80;49.20;;;;;;5068298;28;20214;-38
2022/08/02 06:16:55;;;;;;;0.82;0.40;;;18.70;49.10;;;;;;5069566;28;20198;-38
2022/08/02 06:19:28;;;;;;;1.25;0.50;;;18.70;49.10;;;;;;5070170;28;20230;-40
2022/08/02 06:22:13;;;;;;;0.65;0.45;;;18.70;49.10;;;;;;5070144;28;20210;-39
2022/08/02 06:24:46;;;;;;;0.60;0.52;;;18.70;49.20;;;;;;5069713;28;20218;-38
2022/08/02 06:27:17;;;;;;;0.57;0.40;;;18.70;49.20;;;;;;5063637;28;20206;-40
2022/08/02 06:29:50;;;;;;;0.65;0.30;;;18.70;49.30;;;;;;5063338;28;20277;-37
2022/08/02 06:32:21;;;;;;;0.50;0.40;;;18.60;49.40;;;;;;5070297;28;20202;-37
2022/08/02 06:34:54;;;;;;;1.45;0.52;;;18.60;49.50;;;;;;5068931;28;20218;-37
2022/08/02 06:37:31;;;;;;;0.47;0.40;;;18.60;49.50;;;;;;5072389;28;20191;-37
2022/08/02 06:40:09;;;;;;;0.82;0.38;;;18.60;49.50;;;;;;5071102;28;20229;-48
2022/08/02 06:42:50;;;;;;;0.70;0.40;;;18.60;49.60;;;;;;5049882;28;20195;-39
2022/08/02 06:45:21;;;;;;;0.63;0.40;;;18.60;49.60;;;;;;5052490;28;20211;-38
2022/08/02 06:47:52;;;;;;;0.60;0.40;;;18.60;49.70;;;;;;5069521;28;20206;-42
2022/08/02 06:50:25;;;;;;;0.95;0.40;;;18.60;49.70;;;;;;5070453;28;20650;-38
2022/08/02 06:52:55;;;;;;;0.85;0.60;;;18.50;49.60;;;;;;5074188;28;20545;-41
2022/08/02 06:55:26;;;;;;;0.40;0.40;;;18.50;49.70;;;;;;5067565;28;20223;-41
2022/08/02 06:57:57;;;;;;;0.60;0.50;;;18.50;49.70;;;;;;5075955;28;20238;-37
2022/08/02 07:00:28;;;;;;;1.10;0.60;;;18.50;49.90;;;;;;5073741;28;20681;-37
2022/08/02 07:02:58;;;;;;;0.25;0.25;;;18.50;50.00;;;;;;5065821;28;20860;-37
2022/08/02 07:05:31;;;;;;;1.65;0.50;;;18.50;50.00;;;;;;5073698;28;20225;-38
2022/08/02 07:08:02;;;;;;;0.77;0.50;;;18.40;50.00;;;;;;5073334;28;20195;-37
2022/08/02 07:10:33;;;;;;;1.45;0.30;;;18.40;50.00;;;;;;5073489;28;20205;-43
2022/08/02 07:13:04;;;;;;;0.35;0.30;;;18.40;50.10;;;;;;5074027;28;20196;-38
2022/08/02 07:15:35;;;;;;;0.57;0.50;;;18.40;50.20;;;;;;5073729;28;20215;-40
2022/08/02 07:18:05;;;;;;;0.93;0.52;;;18.30;50.10;;;;;;5073764;28;20194;-39
2022/08/02 07:20:41;;;;;;;0.60;0.40;;;18.30;50.20;;;;;;5073640;28;20191;-42
2022/08/02 07:23:11;;;;;;;0.40;0.40;;;18.40;50.40;;;;;;5074561;28;20190;-37
2022/08/02 07:25:43;;;;;;;0.57;0.50;;;18.30;50.70;;;;;;5073139;28;20229;-37
2022/08/02 07:28:14;;;;;;;1.45;0.40;;;18.30;51.10;;;;;;5053571;28;20210;-37
2022/08/02 07:30:45;;;;;;;0.77;0.50;;;18.30;51.10;;;;;;5055101;28;20199;-37
2022/08/02 07:33:16;;;;;;;0.60;0.40;;;18.30;51.10;;;;;;5073749;28;20666;-37
2022/08/02 07:35:48;;;;;;;0.80;0.52;;;18.30;51.10;;;;;;5073763;28;20195;-36
2022/08/02 07:38:21;;;;;;;0.80;0.60;;;18.20;51.20;;;;;;5073551;28;20219;-37
2022/08/02 07:40:52;;;;;;;1.20;0.50;;;18.20;51.20;;;;;;5073421;28;20191;-39
2022/08/02 07:43:23;;;;;;;0.40;0.40;;;18.20;51.20;;;;;;5073229;28;20209;-43
2022/08/02 07:45:53;;;;;;;0.60;0.60;;;18.20;51.30;;;;;;5073911;28;21336;-36
2022/08/02 07:48:24;;;;;;;0.57;0.30;;;18.20;51.30;;;;;;5073441;28;20206;-37
2022/08/02 07:50:56;;;;;;;0.68;0.40;;;18.20;51.30;;;;;;5073816;28;20288;-37
2022/08/02 07:53:27;;;;;;;0.40;0.40;;;18.10;51.30;;;;;;5073290;28;20195;-42
2022/08/02 07:55:58;;;;;;;0.50;0.50;;;18.10;51.40;;;;;;5061707;28;20209;-37
2022/08/02 07:58:29;;;;;;;0.40;0.40;;;18.10;51.50;;;;;;5073230;28;20214;-37
2022/08/02 08:00:59;;;;;;;0.50;0.50;;;18.10;51.60;;;;;;5073227;28;20555;-37
2022/08/02 08:03:30;;;;;;;0.40;0.40;;;18.00;51.60;;;;;;5072303;28;20198;-37
2022/08/02 08:06:02;;;;;;;0.85;0.40;;;18.00;51.70;;;;;;5073217;28;20650;-37
2022/08/02 08:08:33;;;;;;;0.75;0.40;;;18.00;51.70;;;;;;5072550;28;20194;-37
2022/08/02 08:11:05;;;;;;;0.93;0.40;;;18.00;51.80;;;;;;5072159;28;20270;-37
2022/08/02 08:13:35;;;;;;;0.43;0.43;;;18.00;51.90;;;;;;5072712;28;20234;-37
2022/08/02 08:16:06;;;;;;;1.42;0.47;;;18.00;51.90;;;;;;5072277;28;20199;-36
2022/08/02 08:18:38;;;;;;;0.82;0.40;;;17.90;51.90;;;;;;5072609;28;20222;-40
2022/08/02 08:21:10;;;;;;;0.73;0.45;;;17.90;52.00;;;;;;5072317;28;20257;-41
2022/08/02 08:23:41;;;;;;;1.02;0.50;;;17.90;52.00;;;;;;5072995;28;20214;-40
2022/08/02 08:26:12;;;;;;;0.30;0.30;;;17.90;52.10;;;;;;5072218;28;20233;-37
2022/08/02 08:28:43;;;;;;;0.50;0.40;;;17.90;52.10;;;;;;5072581;28;20219;-37
2022/08/02 08:31:13;;;;;;;1.08;0.55;;;17.90;52.20;;;;;;5072904;28;20201;-36
2022/08/02 08:33:44;;;;;;;0.50;0.50;;;17.80;52.20;;;;;;5070840;28;20210;-36
2022/08/02 08:36:17;;;;;;;0.80;0.60;;;17.80;52.30;;;;;;5077362;28;20281;-46
2022/08/02 08:38:48;;;;;;;0.65;0.43;;;17.80;52.30;;;;;;5079262;28;20222;-37
2022/08/02 08:41:20;;;;;;;0.43;0.40;;;17.80;52.40;;;;;;5072726;28;20195;-37
2022/08/02 08:43:50;;;;;;;0.70;0.45;;;17.80;52.40;;;;;;5072938;28;20272;-37
2022/08/02 08:46:29;;;;;;;1.10;0.40;;;17.80;52.50;;;;;;5073009;28;20213;-37
2022/08/02 08:49:04;;;;;;;0.50;0.50;;;17.80;52.60;;;;;;5072720;28;20202;-37
2022/08/02 08:51:43;;;;;;;0.60;0.52;;;17.80;52.50;;;;;;5072401;28;20198;-40
2022/08/02 08:54:18;;;;;;;0.80;0.50;;;17.80;52.60;;;;;;5072837;28;20218;-37
2022/08/02 08:56:49;;;;;;;0.90;0.68;;;17.70;52.60;;;;;;5071570;28;20191;-37
2022/08/02 08:59:20;;;;;;;1.38;0.43;;;17.70;52.60;;;;;;5072298;28;20713;-37
2022/08/02 09:01:51;;;;;;;0.75;0.47;;;17.70;52.60;;;;;;5072336;28;20190;-36
2022/08/02 09:04:22;;;;;;;0.40;0.40;;;17.70;52.70;;;;;;5072274;28;20215;-37
2022/08/02 09:06:55;;;;;;;0.40;0.40;;;17.70;52.70;;;;;;5080512;28;20198;-37
2022/08/02 09:09:26;;;;;;;0.50;0.40;;;17.70;52.80;;;;;;5093010;28;20205;-37
2022/08/02 09:11:56;;;;;;;0.95;0.40;;;17.70;52.80;;;;;;5092298;28;20724;-37
2022/08/02 09:14:31;;;;;;;0.43;0.43;;;17.70;52.80;;;;;;5091918;28;20217;-37
2022/08/02 09:17:12;;;;;;;0.43;0.40;;;17.70;52.90;;;;;;5092531;28;20229;-37
2022/08/02 09:19:43;;;;;;;0.60;0.50;;;17.70;53.50;;;;;;5092124;28;20225;-37
2022/08/02 09:22:17;;;;;;;0.55;0.40;;;17.70;52.90;;;;;;5091375;28;20221;-36
2022/08/02 09:24:49;;;;;;;0.60;0.40;;;17.60;52.80;;;;;;5091934;28;20214;-36
2022/08/02 09:27:21;;;;;;;0.47;0.40;;;17.60;52.80;;;;;;5065460;28;20210;-36
2022/08/02 09:29:53;;;;;;;0.40;0.40;;;17.60;52.90;;;;;;5051433;28;20195;-37
2022/08/02 09:32:23;;;;;;;0.60;0.40;;;17.60;53.00;;;;;;5050935;28;20217;-37
2022/08/02 09:34:55;;;;;;;0.63;0.50;;;17.60;53.00;;;;;;5051350;28;20231;-36
2022/08/02 09:37:29;;;;;;;1.00;0.40;;;17.50;53.00;;;;;;5063037;28;20205;-36
2022/08/02 09:40:02;;;;;;;0.47;0.47;;;17.60;53.00;;;;;;5071636;28;20233;-38
2022/08/02 09:42:34;;;;;;;0.52;0.47;;;17.60;53.10;;;;;;5071692;28;20194;-36
2022/08/02 09:45:05;;;;;;;0.55;0.50;;;17.50;53.00;;;;;;5070987;28;20702;-37
2022/08/02 09:47:36;;;;;;;1.13;0.65;;;17.50;53.00;;;;;;5071354;28;20202;-37
2022/08/02 09:50:07;;;;;;;0.63;0.50;;;17.50;53.30;;;;;;5071498;28;20654;-37
2022/08/02 09:52:40;;;;;;;0.60;0.60;;;17.60;53.70;;;;;;5070989;28;20195;-37
2022/08/02 09:55:12;;;;;;;0.63;0.60;;;17.60;53.90;;;;;;5071233;28;20222;-37
2022/08/02 09:57:43;;;;;;;0.50;0.40;;;17.60;54.00;;;;;;5070999;28;20195;-37
2022/08/02 10:00:14;;;;;;;2.90;0.73;;;17.60;54.00;;;;;;5070873;28;20222;-37
2022/08/02 10:03:07;;;;;;;1.05;0.50;;;17.60;54.00;;;;;;5070814;28;20535;-37
2022/08/02 10:05:52;;;;;;;0.40;0.40;;;17.50;53.90;;;;;;5065886;28;20234;-37
2022/08/02 10:08:26;;;;;;;0.82;0.45;;;17.60;53.90;;;;;;5070609;28;20602;-37
2022/08/02 10:11:01;;;;;;;1.20;0.60;;;17.50;53.80;;;;;;5070876;28;20217;-36
2022/08/02 10:13:33;;;;;;;1.70;0.50;;;17.50;53.80;;;;;;5059228;28;20240;-37
2022/08/02 10:16:05;;;;;;;1.10;0.65;;;17.50;53.70;;;;;;5081138;28;20649;-37
2022/08/02 10:18:36;;;;;;;0.70;0.50;;;17.40;53.70;;;;;;5079861;28;20574;-37
2022/08/02 10:21:11;;;;;;;0.50;0.50;;;17.40;54.20;;;;;;5070938;28;20218;-36
2022/08/02 10:23:46;;;;;;;0.50;0.45;;;17.40;53.70;;;;;;5065982;28;20225;-37
2022/08/02 10:26:20;;;;;;;0.60;0.57;;;17.40;53.70;;;;;;5059591;28;20276;-40
2022/08/02 10:28:52;;;;;;;1.13;0.60;;;17.30;53.60;;;;;;5069761;28;20194;-48
2022/08/02 10:31:32;;;;;;;0.80;0.60;;;17.30;53.70;;;;;;5070668;28;20190;-36
2022/08/02 10:34:04;;;;;;;0.77;0.70;;;17.40;53.70;;;;;;5069747;28;20206;-37
2022/08/02 10:36:38;;;;;;;0.73;0.45;;;17.30;53.70;;;;;;5070408;28;20202;-37
2022/08/02 10:39:11;;;;;;;0.80;0.60;;;17.30;53.70;;;;;;5070393;28;20195;-46
2022/08/02 10:41:46;;;;;;;0.60;0.60;;;17.30;53.70;;;;;;5070335;28;20654;-52
2022/08/02 10:44:28;;;;;;;0.70;0.60;;;17.30;53.70;;;;;;5069820;28;20218;-42
2022/08/02 10:47:26;;;;;;;1.08;0.52;;;17.30;53.70;;;;;;5068883;28;20198;-46
2022/08/02 10:49:58;;;;;;;0.98;0.60;;;17.20;53.70;;;;;;5070510;28;20207;-38
2022/08/02 10:52:29;;;;;;;0.52;0.43;;;17.30;53.70;;;;;;5089992;28;20201;-46
2022/08/02 10:55:03;;;;;;;0.75;0.65;;;17.20;53.70;;;;;;5090483;28;20218;-37
2022/08/02 10:57:35;;;;;;;0.65;0.50;;;17.20;53.80;;;;;;5064682;28;20663;-55
2022/08/02 11:00:13;;;;;;;0.90;0.68;;;17.20;53.80;;;;;;5069679;28;20223;-37
2022/08/02 11:02:45;;;;;;;1.52;0.50;;;17.20;53.80;;;;;;5049589;28;20206;-37
2022/08/02 11:05:18;;;;;;;0.43;0.40;;;17.10;53.80;;;;;;5051089;28;20711;-44
2022/08/02 11:07:50;;;;;;;0.68;0.50;;;17.10;53.80;;;;;;5070141;28;20191;-37
2022/08/02 11:10:39;;;;;;;0.57;0.40;;;17.10;53.80;;;;;;5070091;28;20195;-37
2022/08/02 11:13:15;;;;;;;0.40;0.40;;;17.10;53.80;;;;;;5070078;28;20210;-37
2022/08/02 11:16:00;;;;;;;0.50;0.50;;;17.10;53.80;;;;;;5070804;28;20210;-37
2022/08/02 11:19:06;;;;;;;0.40;0.40;;;17.10;53.80;;;;;;5050201;28;20199;-37
2022/08/02 11:21:37;;;;;;;0.50;0.40;;;17.10;53.90;;;;;;5029550;28;20200;-42
2022/08/02 11:24:31;;;;;;;0.50;0.50;;;17.10;53.90;;;;;;5049971;28;20216;-46
2022/08/02 11:27:04;;;;;;;0.35;0.35;;;17.00;53.90;;;;;;5064790;28;20258;-37
2022/08/02 11:29:40;;;;;;;1.05;0.50;;;17.00;53.90;;;;;;5069228;28;20210;-37
2022/08/02 11:32:17;;;;;;;0.52;0.50;;;17.00;53.90;;;;;;5069944;28;20667;-39
2022/08/02 11:34:50;;;;;;;0.70;0.50;;;17.00;53.90;;;;;;5070216;28;20219;-37
2022/08/02 11:37:31;;;;;;;0.60;0.50;;;17.00;54.10;;;;;;5071227;28;20195;-37
2022/08/02 11:40:01;;;;;;;0.50;0.50;;;17.00;54.00;;;;;;5073029;28;20226;-37
2022/08/02 11:42:38;;;;;;;0.70;0.50;;;17.00;54.00;;;;;;5072999;28;20202;-53
2022/08/02 11:45:11;;;;;;;0.50;0.50;;;17.00;54.10;;;;;;5072891;28;20210;-54
2022/08/02 11:47:49;;;;;;;0.80;0.60;;;17.00;54.60;;;;;;5073670;28;20655;-57
2022/08/02 11:50:23;;;;;;;0.82;0.60;;;17.00;54.10;;;;;;5073693;28;20199;-43
2022/08/02 11:52:54;;;;;;;0.45;0.38;;;16.90;54.00;;;;;;5073942;28;20232;-37
2022/08/02 11:55:30;;;;;;;0.40;0.40;;;16.90;54.00;;;;;;5073582;28;20222;-41
2022/08/02 11:58:06;;;;;;;0.68;0.50;;;16.90;54.00;;;;;;5072224;28;20195;-38
2022/08/02 12:00:37;;;;;;;1.00;0.63;;;16.90;54.10;;;;;;5072018;28;20222;-39
2022/08/02 12:03:09;;;;;;;0.40;0.40;;;16.90;54.70;;;;;;5071658;28;20201;-44
2022/08/02 12:05:40;;;;;;;0.70;0.50;;;16.90;54.10;;;;;;5071769;28;20218;-37
2022/08/02 12:08:11;;;;;;;0.40;0.30;;;16.90;54.10;;;;;;5072587;28;20209;-37
2022/08/02 12:10:49;;;;;;;0.65;0.50;;;16.90;54.10;;;;;;5071971;28;20191;-38
2022/08/02 12:13:22;;;;;;;0.40;0.40;;;16.90;54.10;;;;;;5071906;28;20191;-39
2022/08/02 12:15:53;;;;;;;0.40;0.40;;;16.80;54.10;;;;;;5071996;28;20195;-40
2022/08/02 12:21:37;;;;;;;0.40;0.40;;;16.80;54.10;;;;;;5071022;28;20280;-37
2022/08/02 12:24:08;;;;;;;0.40;0.40;;;16.80;54.10;;;;;;5071560;28;20873;-37
2022/08/02 12:26:45;;;;;;;0.65;0.40;;;16.80;54.10;;;;;;5071746;28;20880;-39
2022/08/02 12:29:18;;;;;;;0.50;0.50;;;16.80;54.20;;;;;;5071394;28;20191;-36
2022/08/02 12:31:49;;;;;;;0.43;0.40;;;16.80;54.20;;;;;;5071248;28;20206;-37
2022/08/02 12:34:21;;;;;;;0.65;0.50;;;16.80;54.20;;;;;;5070680;28;20219;-36
2022/08/02 12:37:01;;;;;;;0.40;0.40;;;16.70;54.20;;;;;;5070690;28;20598;-42
2022/08/02 12:39:41;;;;;;;0.43;0.43;;;16.70;54.20;;;;;;5070979;28;20194;-37
2022/08/02 12:42:13;;;;;;;0.60;0.60;;;16.70;54.20;;;;;;5070878;28;20191;-38
2022/08/02 12:44:57;;;;;;;0.45;0.45;;;16.70;54.20;;;;;;5070846;28;20582;-36
2022/08/02 12:47:28;;;;;;;0.85;0.45;;;16.70;54.20;;;;;;5070847;28;20244;-36
2022/08/02 12:50:16;;;;;;;0.77;0.40;;;16.70;54.20;;;;;;5069717;28;20553;-43
2022/08/02 12:52:46;;;;;;;0.50;0.50;;;16.70;54.20;;;;;;5069622;28;20205;-37
2022/08/02 12:55:22;;;;;;;0.50;0.40;;;16.70;54.20;;;;;;5071385;28;20223;-37
2022/08/02 12:58:01;;;;;;;0.93;0.60;;;16.70;54.20;;;;;;5070422;28;20198;-37
2022/08/02 13:00:34;;;;;;;0.60;0.40;;;16.60;54.30;;;;;;5070518;28;20226;-37
2022/08/02 13:03:06;;;;;;;0.57;0.40;;;16.60;54.20;;;;;;5070567;28;20665;-37
2022/08/02 13:05:40;;;;;;;0.52;0.43;;;16.60;54.20;;;;;;5070573;28;20214;-37
2022/08/02 13:08:11;;;;;;;0.55;0.52;;;16.60;54.30;;;;;;5051070;28;20199;-37
2022/08/02 13:10:41;;;;;;;0.43;0.43;;;16.60;54.30;;;;;;5050538;28;20206;-42
2022/08/02 13:13:12;;;;;;;0.50;0.40;;;16.60;54.20;;;;;;5050457;28;20207;-37
2022/08/02 13:15:45;;;;;;;0.43;0.35;;;16.60;54.20;;;;;;5050453;28;20216;-37
2022/08/02 13:18:17;;;;;;;0.40;0.40;;;16.60;54.20;;;;;;5050890;28;20300;-37
2022/08/02 13:20:47;;;;;;;0.60;0.50;;;16.60;54.10;;;;;;5051212;28;20235;-37